sensor_id;sensor_type;location;lat;lon;timestamp;pressure;altitude;pressure_sealevel;temperature;humidity
25130;BME280;13308;50.860;13.664;2022-10-31T06:22:42;97275.66;;;10.57;100.00
25130;BME280;13308;50.860;13.664;2022-10-31T06:25:08;97289.00;;;10.62;100.00
25130;BME280;13308;50.860;13.664;2022-10-31T06:27:36;97287.44;;;10.61;100.00
25130;BME280;13308;50.860;13.664;2022-10-31T06:30:09;97290.50;;;10.70;100.00
25130;BME280;13308;50.860;13.664;2022-10-31T06:32:36;97294.72;;;10.85;100.00
25130;BME280;13308;50.860;13.664;2022-10-31T06:35:01;97301.75;;;10.90;100.00
25130;BME280;13308;50.860;13.664;2022-10-31T06:37:27;97298.91;;;11.00;100.00
25130;BME280;13308;50.860;13.664;2022-10-31T06:39:59;97299.66;;;11.04;100.00
25130;BME280;13308;50.860;13.664;2022-10-31T06:42:24;97299.13;;;11.16;100.00
25130;BME280;13308;50.860;13.664;2022-10-31T06:44:50;97311.38;;;11.15;100.00
25130;BME280;13308;50.860;13.664;2022-10-31T06:47:27;97315.25;;;11.21;100.00
25130;BME280;13308;50.860;13.664;2022-10-31T06:50:00;97311.19;;;11.33;100.00
25130;BME280;13308;50.860;13.664;2022-10-31T06:52:26;97314.06;;;11.22;100.00
25130;BME280;13308;50.860;13.664;2022-10-31T06:54:51;97319.91;;;11.31;100.00
25130;BME280;13308;50.860;13.664;2022-10-31T06:57:17;97315.94;;;11.32;100.00
25130;BME280;13308;50.860;13.664;2022-10-31T06:59:43;97319.22;;;11.20;100.00
25130;BME280;13308;50.860;13.664;2022-10-31T07:02:23;97321.16;;;11.23;100.00
25130;BME280;13308;50.860;13.664;2022-10-31T07:04:49;97322.34;;;11.22;100.00
25130;BME280;13308;50.860;13.664;2022-10-31T07:07:16;97322.25;;;11.29;100.00
25130;BME280;13308;50.860;13.664;2022-10-31T07:09:43;97322.44;;;11.49;100.00
25130;BME280;13308;50.860;13.664;2022-10-31T07:12:10;97321.22;;;11.53;100.00
25130;BME280;13308;50.860;13.664;2022-10-31T07:14:38;97331.41;;;11.63;100.00
25130;BME280;13308;50.860;13.664;2022-10-31T07:17:04;97330.44;;;11.77;100.00
25130;BME280;13308;50.860;13.664;2022-10-31T07:19:33;97332.19;;;11.64;100.00
25130;BME280;13308;50.860;13.664;2022-10-31T07:21:58;97330.50;;;11.73;100.00
25130;BME280;13308;50.860;13.664;2022-10-31T07:24:27;97333.94;;;11.81;100.00
25130;BME280;13308;50.860;13.664;2022-10-31T07:27:10;97344.63;;;12.09;100.00
25130;BME280;13308;50.860;13.664;2022-10-31T07:29:36;97336.28;;;12.12;100.00
25130;BME280;13308;50.860;13.664;2022-10-31T07:32:03;97342.56;;;12.16;100.00
25130;BME280;13308;50.860;13.664;2022-10-31T07:34:30;97341.25;;;12.24;100.00
25130;BME280;13308;50.860;13.664;2022-10-31T07:37:17;97339.66;;;12.27;100.00
25130;BME280;13308;50.860;13.664;2022-10-31T07:39:43;97347.78;;;12.37;100.00
25130;BME280;13308;50.860;13.664;2022-10-31T07:42:08;97337.34;;;12.48;100.00
25130;BME280;13308;50.860;13.664;2022-10-31T07:44:35;97345.22;;;12.76;99.62
25130;BME280;13308;50.860;13.664;2022-10-31T07:47:19;97340.94;;;12.98;99.25
25130;BME280;13308;50.860;13.664;2022-10-31T07:50:03;97342.63;;;13.15;97.68
25130;BME280;13308;50.860;13.664;2022-10-31T07:52:47;97337.09;;;13.15;96.89
25130;BME280;13308;50.860;13.664;2022-10-31T07:55:36;97346.84;;;13.23;96.73
25130;BME280;13308;50.860;13.664;2022-10-31T07:58:05;97338.13;;;13.44;96.27
25130;BME280;13308;50.860;13.664;2022-10-31T08:00:32;97336.16;;;13.64;95.33
25130;BME280;13308;50.860;13.664;2022-10-31T08:03:04;97344.44;;;13.87;95.66
25130;BME280;13308;50.860;13.664;2022-10-31T08:05:59;97342.81;;;14.45;92.34
25130;BME280;13308;50.860;13.664;2022-10-31T08:08:37;97346.06;;;14.59;91.88
25130;BME280;13308;50.860;13.664;2022-10-31T08:11:02;97346.06;;;14.91;89.67
25130;BME280;13308;50.860;13.664;2022-10-31T08:13:29;97345.13;;;14.98;89.03
25130;BME280;13308;50.860;13.664;2022-10-31T08:15:54;97343.03;;;15.02;89.82
25130;BME280;13308;50.860;13.664;2022-10-31T08:18:24;97343.81;;;15.18;89.83
25130;BME280;13308;50.860;13.664;2022-10-31T08:20:50;97352.63;;;15.61;87.03
25130;BME280;13308;50.860;13.664;2022-10-31T08:23:15;97359.22;;;15.96;84.82
25130;BME280;13308;50.860;13.664;2022-10-31T08:25:42;97352.13;;;16.07;84.18
25130;BME280;13308;50.860;13.664;2022-10-31T08:28:10;97355.94;;;16.26;83.62
25130;BME280;13308;50.860;13.664;2022-10-31T08:30:37;97351.09;;;16.42;82.40
25130;BME280;13308;50.860;13.664;2022-10-31T08:33:28;97351.81;;;16.84;81.33
25130;BME280;13308;50.860;13.664;2022-10-31T08:36:12;97351.22;;;17.26;79.25
25130;BME280;13308;50.860;13.664;2022-10-31T08:38:48;97356.25;;;17.65;78.21
25130;BME280;13308;50.860;13.664;2022-10-31T08:41:15;97359.69;;;18.03;75.57
25130;BME280;13308;50.860;13.664;2022-10-31T08:43:40;97362.41;;;18.37;73.80
25130;BME280;13308;50.860;13.664;2022-10-31T08:46:06;97357.25;;;18.57;72.55
25130;BME280;13308;50.860;13.664;2022-10-31T08:48:32;97354.34;;;19.00;71.97
25130;BME280;13308;50.860;13.664;2022-10-31T08:50:59;97355.38;;;19.33;69.84
25130;BME280;13308;50.860;13.664;2022-10-31T08:53:25;97359.66;;;19.73;68.01
25130;BME280;13308;50.860;13.664;2022-10-31T08:56:04;97369.16;;;20.03;68.23
25130;BME280;13308;50.860;13.664;2022-10-31T08:58:30;97367.84;;;20.67;64.83
25130;BME280;13308;50.860;13.664;2022-10-31T09:01:01;97372.06;;;21.13;62.93
25130;BME280;13308;50.860;13.664;2022-10-31T09:03:28;97361.13;;;21.71;61.38
25130;BME280;13308;50.860;13.664;2022-10-31T09:05:56;97364.19;;;22.20;60.97
25130;BME280;13308;50.860;13.664;2022-10-31T09:08:22;97363.47;;;22.63;60.28
25130;BME280;13308;50.860;13.664;2022-10-31T09:10:51;97375.56;;;23.12;58.64
25130;BME280;13308;50.860;13.664;2022-10-31T09:13:29;97371.25;;;23.66;57.83
25130;BME280;13308;50.860;13.664;2022-10-31T09:16:13;97374.38;;;24.08;54.72
25130;BME280;13308;50.860;13.664;2022-10-31T09:18:39;97375.63;;;24.27;55.19
25130;BME280;13308;50.860;13.664;2022-10-31T09:21:05;97381.00;;;24.70;53.90
25130;BME280;13308;50.860;13.664;2022-10-31T09:23:30;97379.94;;;24.93;53.58
25130;BME280;13308;50.860;13.664;2022-10-31T09:25:59;97380.72;;;25.25;52.73
25130;BME280;13308;50.860;13.664;2022-10-31T09:28:41;97378.13;;;25.58;52.43
25130;BME280;13308;50.860;13.664;2022-10-31T09:31:10;97389.41;;;26.00;51.66
25130;BME280;13308;50.860;13.664;2022-10-31T09:33:49;97385.66;;;25.72;50.24
25130;BME280;13308;50.860;13.664;2022-10-31T09:36:33;97390.84;;;25.79;49.19
25130;BME280;13308;50.860;13.664;2022-10-31T09:38:58;97392.66;;;26.35;50.40
25130;BME280;13308;50.860;13.664;2022-10-31T09:42:02;97391.91;;;25.87;49.64
25130;BME280;13308;50.860;13.664;2022-10-31T09:50:51;97379.47;;;26.15;47.90
25130;BME280;13308;50.860;13.664;2022-10-31T09:53:42;97378.34;;;25.96;48.12
25130;BME280;13308;50.860;13.664;2022-10-31T09:56:18;97374.78;;;26.76;49.45
25130;BME280;13308;50.860;13.664;2022-10-31T09:58:50;97373.97;;;25.90;48.33
25130;BME280;13308;50.860;13.664;2022-10-31T10:01:32;97377.22;;;26.25;49.20
25130;BME280;13308;50.860;13.664;2022-10-31T10:04:26;97380.81;;;25.78;47.80
25130;BME280;13308;50.860;13.664;2022-10-31T10:09:44;97381.34;;;25.82;48.45
25130;BME280;13308;50.860;13.664;2022-10-31T10:16:12;97371.72;;;26.05;48.06
25130;BME280;13308;50.860;13.664;2022-10-31T10:18:58;97366.25;;;25.48;48.19
25130;BME280;13308;50.860;13.664;2022-10-31T10:21:45;97361.63;;;25.93;47.62
25130;BME280;13308;50.860;13.664;2022-10-31T10:24:51;97365.59;;;25.70;49.06
25130;BME280;13308;50.860;13.664;2022-10-31T10:27:34;97364.06;;;26.16;48.31
25130;BME280;13308;50.860;13.664;2022-10-31T10:30:24;97360.75;;;26.29;47.99
25130;BME280;13308;50.860;13.664;2022-10-31T10:33:11;97357.72;;;26.49;48.85
25130;BME280;13308;50.860;13.664;2022-10-31T10:35:47;97357.78;;;26.71;48.06
25130;BME280;13308;50.860;13.664;2022-10-31T10:38:26;97347.41;;;26.40;47.14
25130;BME280;13308;50.860;13.664;2022-10-31T10:41:01;97346.41;;;26.49;47.58
25130;BME280;13308;50.860;13.664;2022-10-31T10:43:37;97348.03;;;25.97;48.19
25130;BME280;13308;50.860;13.664;2022-10-31T10:46:19;97337.59;;;26.36;48.37
25130;BME280;13308;50.860;13.664;2022-10-31T10:59:30;97330.25;;;26.82;48.51
25130;BME280;13308;50.860;13.664;2022-10-31T11:01:56;97336.16;;;26.68;47.59
25130;BME280;13308;50.860;13.664;2022-10-31T11:04:35;97339.28;;;27.14;48.04
25130;BME280;13308;50.860;13.664;2022-10-31T11:07:07;97332.81;;;26.64;48.41
25130;BME280;13308;50.860;13.664;2022-10-31T11:09:34;97331.53;;;27.09;49.14
25130;BME280;13308;50.860;13.664;2022-10-31T11:12:26;97332.81;;;27.13;47.82
25130;BME280;13308;50.860;13.664;2022-10-31T11:15:07;97334.56;;;27.60;47.80
25130;BME280;13308;50.860;13.664;2022-10-31T11:17:41;97331.25;;;27.45;48.74
25130;BME280;13308;50.860;13.664;2022-10-31T11:22:37;97323.28;;;27.44;48.72
25130;BME280;13308;50.860;13.664;2022-10-31T11:25:22;97321.91;;;27.72;48.34
25130;BME280;13308;50.860;13.664;2022-10-31T11:28:05;97313.50;;;27.12;49.89
25130;BME280;13308;50.860;13.664;2022-10-31T11:30:44;97314.56;;;27.20;48.53
25130;BME280;13308;50.860;13.664;2022-10-31T11:35:54;97311.97;;;26.89;48.73
25130;BME280;13308;50.860;13.664;2022-10-31T11:38:23;97301.66;;;27.30;49.95
25130;BME280;13308;50.860;13.664;2022-10-31T11:40:54;97297.31;;;26.74;49.07
25130;BME280;13308;50.860;13.664;2022-10-31T11:43:20;97299.88;;;27.27;49.20
25130;BME280;13308;50.860;13.664;2022-10-31T11:45:46;97295.66;;;27.55;48.88
25130;BME280;13308;50.860;13.664;2022-10-31T11:48:16;97296.75;;;27.30;49.08
25130;BME280;13308;50.860;13.664;2022-10-31T11:50:48;97293.44;;;27.10;48.83
25130;BME280;13308;50.860;13.664;2022-10-31T11:53:22;97298.78;;;27.52;47.81
25130;BME280;13308;50.860;13.664;2022-10-31T11:56:20;97286.94;;;27.42;48.87
25130;BME280;13308;50.860;13.664;2022-10-31T11:58:55;97279.53;;;27.23;49.61
25130;BME280;13308;50.860;13.664;2022-10-31T12:04:13;97271.31;;;26.92;49.75
25130;BME280;13308;50.860;13.664;2022-10-31T12:06:43;97272.25;;;27.44;48.60
25130;BME280;13308;50.860;13.664;2022-10-31T12:09:21;97264.09;;;26.80;48.93
25130;BME280;13308;50.860;13.664;2022-10-31T12:17:57;97264.84;;;27.02;48.22
25130;BME280;13308;50.860;13.664;2022-10-31T12:20:48;97251.25;;;26.79;49.55
25130;BME280;13308;50.860;13.664;2022-10-31T12:23:28;97252.50;;;26.89;48.81
25130;BME280;13308;50.860;13.664;2022-10-31T12:40:28;97242.00;;;28.20;47.95
25130;BME280;13308;50.860;13.664;2022-10-31T12:43:29;97240.34;;;28.41;47.02
25130;BME280;13308;50.860;13.664;2022-10-31T12:45:59;97235.13;;;28.10;48.35
25130;BME280;13308;50.860;13.664;2022-10-31T12:51:14;97234.16;;;28.42;47.73
25130;BME280;13308;50.860;13.664;2022-10-31T12:54:29;97224.47;;;28.21;47.83
25130;BME280;13308;50.860;13.664;2022-10-31T13:00:34;97222.94;;;28.55;47.88
25130;BME280;13308;50.860;13.664;2022-10-31T13:02:52;97217.84;;;28.08;48.36
25130;BME280;13308;50.860;13.664;2022-10-31T13:05:40;97216.19;;;28.58;47.37
25130;BME280;13308;50.860;13.664;2022-10-31T13:08:15;97212.50;;;28.34;48.13
25130;BME280;13308;50.860;13.664;2022-10-31T13:11:03;97218.81;;;29.34;47.05
25130;BME280;13308;50.860;13.664;2022-10-31T13:13:36;97215.09;;;29.44;46.00
25130;BME280;13308;50.860;13.664;2022-10-31T13:16:21;97215.56;;;29.24;45.87
25130;BME280;13308;50.860;13.664;2022-10-31T13:19:16;97210.00;;;29.80;45.11
25130;BME280;13308;50.860;13.664;2022-10-31T13:24:59;97206.94;;;29.78;45.08
25130;BME280;13308;50.860;13.664;2022-10-31T13:27:34;97209.75;;;29.35;46.16
25130;BME280;13308;50.860;13.664;2022-10-31T13:30:12;97207.44;;;29.34;45.35
25130;BME280;13308;50.860;13.664;2022-10-31T13:32:46;97196.94;;;29.29;46.12
25130;BME280;13308;50.860;13.664;2022-10-31T13:38:33;97193.13;;;29.21;46.32
25130;BME280;13308;50.860;13.664;2022-10-31T13:46:24;97191.56;;;29.44;45.98
25130;BME280;13308;50.860;13.664;2022-10-31T13:48:50;97185.16;;;29.62;45.36
25130;BME280;13308;50.860;13.664;2022-10-31T13:51:33;97187.53;;;30.32;44.53
25130;BME280;13308;50.860;13.664;2022-10-31T13:54:19;97190.03;;;29.67;45.21
25130;BME280;13308;50.860;13.664;2022-10-31T13:56:49;97186.63;;;29.87;44.11
25130;BME280;13308;50.860;13.664;2022-10-31T13:59:18;97189.47;;;29.26;45.52
25130;BME280;13308;50.860;13.664;2022-10-31T14:01:47;97184.34;;;28.06;47.10
25130;BME280;13308;50.860;13.664;2022-10-31T14:04:22;97171.66;;;26.88;49.46
25130;BME280;13308;50.860;13.664;2022-10-31T14:06:58;97172.72;;;25.97;51.28
25130;BME280;13308;50.860;13.664;2022-10-31T14:09:31;97161.78;;;24.93;53.82
25130;BME280;13308;50.860;13.664;2022-10-31T14:12:06;97152.59;;;24.25;55.47
25130;BME280;13308;50.860;13.664;2022-10-31T14:14:39;97148.56;;;23.55;58.07
25130;BME280;13308;50.860;13.664;2022-10-31T14:17:17;97135.94;;;22.85;60.56
25130;BME280;13308;50.860;13.664;2022-10-31T14:19:56;97145.00;;;22.54;62.62
25130;BME280;13308;50.860;13.664;2022-10-31T14:22:23;97140.91;;;22.06;65.05
25130;BME280;13308;50.860;13.664;2022-10-31T14:24:48;97128.13;;;21.62;67.81
25130;BME280;13308;50.860;13.664;2022-10-31T14:29:46;97130.03;;;21.03;70.34
25130;BME280;13308;50.860;13.664;2022-10-31T14:34:55;97124.81;;;20.73;71.31
25130;BME280;13308;50.860;13.664;2022-10-31T14:40:14;97123.22;;;20.25;74.58
25130;BME280;13308;50.860;13.664;2022-10-31T14:48:36;97115.88;;;19.35;78.83
25130;BME280;13308;50.860;13.664;2022-10-31T14:51:11;97107.81;;;19.02;79.86
25130;BME280;13308;50.860;13.664;2022-10-31T14:53:48;97107.34;;;18.58;82.64
25130;BME280;13308;50.860;13.664;2022-10-31T14:56:20;97115.09;;;18.54;82.50
25130;BME280;13308;50.860;13.664;2022-10-31T14:58:48;97106.06;;;18.41;82.74
25130;BME280;13308;50.860;13.664;2022-10-31T15:01:23;97108.47;;;18.21;84.08
25130;BME280;13308;50.860;13.664;2022-10-31T15:03:50;97108.28;;;18.07;83.67
25130;BME280;13308;50.860;13.664;2022-10-31T15:06:18;97096.97;;;17.71;86.16
25130;BME280;13308;50.860;13.664;2022-10-31T15:08:53;97099.47;;;17.47;87.23
25130;BME280;13308;50.860;13.664;2022-10-31T15:11:26;97100.28;;;17.26;88.57
25130;BME280;13308;50.860;13.664;2022-10-31T15:13:56;97096.75;;;16.92;90.73
25130;BME280;13308;50.860;13.664;2022-10-31T15:16:30;97100.75;;;16.69;90.08
25130;BME280;13308;50.860;13.664;2022-10-31T15:19:04;97092.28;;;16.39;91.82
25130;BME280;13308;50.860;13.664;2022-10-31T15:21:30;97103.88;;;16.25;92.72
25130;BME280;13308;50.860;13.664;2022-10-31T15:23:57;97098.34;;;16.00;92.80
25130;BME280;13308;50.860;13.664;2022-10-31T15:26:31;97085.09;;;15.79;94.83
25130;BME280;13308;50.860;13.664;2022-10-31T15:29:05;97088.56;;;15.58;95.32
25130;BME280;13308;50.860;13.664;2022-10-31T15:31:31;97079.47;;;15.16;97.59
25130;BME280;13308;50.860;13.664;2022-10-31T15:34:06;97082.34;;;15.00;97.55
25130;BME280;13308;50.860;13.664;2022-10-31T15:36:37;97072.50;;;14.83;97.54
25130;BME280;13308;50.860;13.664;2022-10-31T15:39:02;97077.78;;;14.65;99.70
25130;BME280;13308;50.860;13.664;2022-10-31T15:41:34;97075.03;;;14.49;100.00
25130;BME280;13308;50.860;13.664;2022-10-31T15:44:15;97074.91;;;14.40;99.99
25130;BME280;13308;50.860;13.664;2022-10-31T15:46:41;97061.22;;;14.17;100.00
25130;BME280;13308;50.860;13.664;2022-10-31T15:49:27;97057.31;;;13.99;100.00
25130;BME280;13308;50.860;13.664;2022-10-31T15:51:54;97051.69;;;14.02;100.00
25130;BME280;13308;50.860;13.664;2022-10-31T15:54:20;97058.03;;;14.03;100.00
25130;BME280;13308;50.860;13.664;2022-10-31T15:56:47;97052.66;;;13.96;100.00
25130;BME280;13308;50.860;13.664;2022-10-31T15:59:21;97050.50;;;13.87;100.00
25130;BME280;13308;50.860;13.664;2022-10-31T16:02:02;97055.16;;;13.74;100.00
25130;BME280;13308;50.860;13.664;2022-10-31T16:04:28;97053.50;;;13.77;100.00
25130;BME280;13308;50.860;13.664;2022-10-31T16:07:15;97056.91;;;13.84;100.00
25130;BME280;13308;50.860;13.664;2022-10-31T16:09:52;97049.47;;;13.81;100.00
25130;BME280;13308;50.860;13.664;2022-10-31T16:12:19;97055.94;;;13.91;100.00
25130;BME280;13308;50.860;13.664;2022-10-31T16:14:44;97047.88;;;13.96;100.00
25130;BME280;13308;50.860;13.664;2022-10-31T16:17:14;97040.88;;;13.92;100.00
25130;BME280;13308;50.860;13.664;2022-10-31T16:19:49;97043.22;;;13.93;100.00
25130;BME280;13308;50.860;13.664;2022-10-31T16:22:21;97039.41;;;13.87;100.00
25130;BME280;13308;50.860;13.664;2022-10-31T16:24:53;97042.59;;;13.86;100.00
25130;BME280;13308;50.860;13.664;2022-10-31T16:27:26;97048.66;;;13.97;100.00
25130;BME280;13308;50.860;13.664;2022-10-31T16:29:55;97044.69;;;13.98;100.00
25130;BME280;13308;50.860;13.664;2022-10-31T16:32:54;97039.75;;;13.89;100.00
25130;BME280;13308;50.860;13.664;2022-10-31T16:35:27;97043.53;;;13.79;100.00
25130;BME280;13308;50.860;13.664;2022-10-31T16:37:53;97052.31;;;13.78;100.00
25130;BME280;13308;50.860;13.664;2022-10-31T16:40:19;97048.50;;;13.72;100.00
25130;BME280;13308;50.860;13.664;2022-10-31T16:42:45;97048.94;;;13.70;100.00
25130;BME280;13308;50.860;13.664;2022-10-31T16:45:19;97045.47;;;13.66;100.00
25130;BME280;13308;50.860;13.664;2022-10-31T16:47:45;97047.91;;;13.64;100.00
25130;BME280;13308;50.860;13.664;2022-10-31T16:52:41;97050.13;;;13.53;100.00
25130;BME280;13308;50.860;13.664;2022-10-31T16:55:10;97047.13;;;13.48;100.00
25130;BME280;13308;50.860;13.664;2022-10-31T16:57:36;97045.44;;;13.50;100.00
25130;BME280;13308;50.860;13.664;2022-10-31T17:00:02;97043.88;;;13.49;100.00
25130;BME280;13308;50.860;13.664;2022-10-31T17:02:28;97041.19;;;13.46;100.00
25130;BME280;13308;50.860;13.664;2022-10-31T17:04:53;97035.75;;;13.42;100.00
25130;BME280;13308;50.860;13.664;2022-10-31T17:07:19;97036.69;;;13.36;100.00
25130;BME280;13308;50.860;13.664;2022-10-31T17:09:44;97035.56;;;13.33;100.00
